Tiempo atmosférico en la estación meteorológica de Cervera De Pisuerga, Palencia (1140 m.)



Fecha
DESCASC
Temp. máxima en grados centígrados (hora)
DESCASC
Temp. mínima en grados centígrados (hora)
DESCASC
Temp. media en grados centígrados
DESCASC
Racha de viento máxima en m/sg (hora)
DESCASC
Velocidad máxima media en intervalos de 10 minutos(hora)
DESCASC
Precipitaciones diarias en mm
DESCASC
Precipitaciones de 00:00 a 06:00 en mm
DESCASC
Precipitaciones de 06:00 a 12:00 en mm
DESCASC
Precipitaciones de 12:00 a 18:00 en mm
DESCASC
Precipitaciones de 18:00 a 24:00 en mm
DESCASC
06-12-2018 5.7 (15:30) -0.8 (08:00) 2.4 5.83 (13:30) 2.22 (04:40) 0 0 0 0 0
05-12-2018 15.1 (14:00) 2.5 (23:59) 8.8 9.17 (14:40) 6.11 (14:40) 0 0 0 0 0
04-12-2018 13.1 (16:20) 4 (23:59) 8.6 6.67 (23:20) 3.61 (03:00) 0.2 0 0.2 0 0
03-12-2018 13 (15:50) 2.7 (00:00) 7.9 8.06 (10:00) 4.44 (09:50) 0.6 0 0.4 0.2 0
02-12-2018 10.5 (16:30) 2.8 (00:00) 6.6 10.28 (16:00) 5.56 (16:00) 0 0 0 0 0
01-12-2018 10 (16:40) 1.3 (00:00) 5.6 8.61 (03:00) 3.61 (06:50) 0 0 0 0 0
30-11-2018 4.1 (13:40) -1.8 (-00:0) 1.1 6.11 (08:20) 3.06 (12:20) 0 0 0 0 0
29-11-2018 6.6 (11:00) 0.3 (00:00) 3.4 10.56 (07:10) 4.17 (10:40) 0.8 0 0 0.8 0
28-11-2018 14.4 (15:10) 0.4 (00:00) 7.4 7.78 (04:40) 3.89 (15:20) 0 0 0 0 0
27-11-2018 8.1 (13:30) -1.3 (-00:0) 3.4 7.78 (18:10) 3.61 (14:00) 0 0 0 0 0
26-11-2018 9 (15:20) -0.2 (07:50) 4.4 6.67 (15:00) 3.33 (14:20) 3 2.6 0.4 0 0
25-11-2018 9.4 (13:50) -0.3 (00:00) 4.5 14.72 (00:10) 8.33 (00:10) 6 6 0 0 0
24-11-2018 5.9 (12:20) 2.4 (00:00) 4.2 18.33 (20:40) 10 (21:40) 29.2 8 1.8 2 17.4
23-11-2018 7.7 (15:00) 2 (00:00) 4.8 10.56 (16:30) 5.28 (16:30) 3.4 0.4 0.2 1.6 1.2
22-11-2018 6.7 (14:40) 2.2 (00:00) 4.4 15.28 (00:10) 8.06 (05:00) 9.2 1 4.6 0.6 3
21-11-2018 6.7 (14:10) 0 (00:00) 3.3 13.89 (16:10) 7.5 (17:30) 7.2 0.8 1.6 2 2.8
20-11-2018 3.8 (00:00) 0.1 (00:00) 1.9 5.83 (19:20) 2.78 (12:30) 4.8 0 0.6 1.4 2.8
19-11-2018 11.6 (14:20) 3.8 (00:00) 7.7 8.61 (01:20) 3.89 (01:20) 1 1 0 0 0
18-11-2018 11.6 (13:30) 2.7 (00:00) 7.2 8.61 (21:20) 3.89 (16:10) 13.2 0 0 0 13.2
17-11-2018 14.8 (14:10) 5 (00:00) 9.9 11.39 (00:30) 5.83 (00:30) 0 0 0 0 0
16-11-2018 15.9 (15:00) 5 (00:00) 10.4 7.78 (15:00) 5.28 (18:00) 0 0 0 0 0
15-11-2018 15.8 (15:40) 5.5 (00:00) 10.7 7.22 (15:20) 5.28 (12:30) 0 0 0 0 0
14-11-2018 13.3 (13:40) 2.5 (00:00) 7.9 7.22 (14:00) 4.72 (21:30) 0 0 0 0 0
13-11-2018 13.9 (15:40) 2.2 (00:00) 8 7.22 (16:30) 5 (17:00) -- -- -- 0 0
12-11-2018 10.3 (14:40) 4.8 (00:00) 7.6 8.33 (00:40) 3.61 (11:40) -- -- -- -- --
11-11-2018 8.9 (14:10) 5.5 (00:00) 7.2 18.61 (07:30) 9.44 (15:20) -- -- -- -- --
10-11-2018 14.1 (13:00) 6.6 (00:00) 10.4 22.22 (19:40) 10 (08:30) -- -- -- -- --

Gráficas

Temp. máximas Temp. mínimas Temp. medias Precipitaciones Rachas de viento máximas Velocidades máximas media en intervalos de 10 minutos

Datos horarios

Fecha y hora oficial Temperatura (ºC) Velocidad del viento (km/h) Dirección del viento Racha (km/h) Dirección de racha Precipitación (mm) Presión (hPa) Tendencia (hPa) Humedad (%)
2018-12-09 23:00:00 1.3 4 Noroeste 15 Oeste 0 901.5 0.6 96
2018-12-09 22:00:00 2.2 5 Noroeste 15 Oeste 0 901.4 1 96
2018-12-09 21:00:00 2.7 0 Calma 14 Oeste 0 901.2 1.1 96
2018-12-09 20:00:00 3.6 3 Norte 14 Oeste 0 900.9 1.4 93
2018-12-09 19:00:00 5 6 Sur 12 Sur 0 900.4 1.2 88
2018-12-09 18:00:00 6.8 6 Sudeste 15 Sur 0 900.1 1.1 78
2018-12-09 17:00:00 10.6 8 Sudeste 18 Sur 0 899.5 0.5 65
2018-12-09 16:00:00 11.6 10 Este 21 Este 0 899.2 -0.5 61
2018-12-09 15:00:00 13.2 10 Este 17 Este 0 899 -0.9 56
2018-12-09 14:00:00 11.4 7 Este 17 Este 0 899 -0.9 62
2018-12-09 13:00:00 11.6 11 Sur 19 Sur 0 899.7 0.2 59
2018-12-09 12:00:00 9.7 4 Sur 20 Oeste 0 899.9 0.6 68
2018-12-09 11:00:00 4.7 6 Noroeste 27 Oeste 0 899.9 0.8 74
2018-12-09 10:00:00 3.7 8 Noroeste 25 Oeste 0 899.5 0.9 85
2018-12-09 09:00:00 1 6 Noroeste 17 Oeste 0 899.3 1.2 92
2018-12-09 08:00:00 0.3 6 Oeste 23 Oeste 0 899.1 1 97
2018-12-09 07:00:00 1.4 5 Noroeste 23 Oeste 0 898.6 0.3 90
2018-12-09 06:00:00 0.9 9 Noroeste 18 Oeste 0 898.1 -0.2 96
2018-12-09 05:00:00 1.3 7 Noroeste 17 Oeste 0 898.1 -0.2 98
2018-12-09 04:00:00 1 5 Noroeste 22 Oeste 0 898.3 -0.2 97
2018-12-09 03:00:00 1.6 4 Oeste 14 Oeste 0 898.3 -0.2 96
2018-12-09 02:00:00 1.9 5 Oeste 17 Nordeste 0 898.3 -0.1 95
2018-12-09 01:00:00 2 4 Oeste 15 Oeste 0 898.5 0.2 95
2018-12-09 00:00:00 2 6 Noroeste 17 Oeste 0 898.5 0.2 94
2018-12-08 23:00:00 2.4 5 Oeste 15 Oeste 0 898.4 0.4 93
2018-12-08 22:00:00 2.5 8 Noroeste 15 Oeste 0 898.3 0.3 93
2018-12-08 21:00:00 3.2 5 Oeste 14 Oeste 0 898.3 0.5 90
2018-12-08 20:00:00 4 6 Noroeste 18 Oeste 0 898 0.5 85
2018-12-08 19:00:00 4.7 8 Noroeste 17 Oeste 0 898 0.7 83
2018-12-08 18:00:00 6.2 5 Sudeste 17 Nordeste 0 897.8 0.2 77
2018-12-08 17:00:00 9.1 4 Este 17 Este 0 897.5 -0.5 65
2018-12-08 16:00:00 10 9 Sur 18 Nordeste 0 897.3 -1.3 62
2018-12-08 15:00:00 9.8 8 Este 18 Nordeste 0 897.6 -1.2 60
2018-12-08 14:00:00 9.8 8 Nordeste 18 Nordeste 0 898 -0.9 60
2018-12-08 13:00:00 8.1 8 Este 15 Sur 0 898.6 0 68
2018-12-08 12:00:00 5.6 3 Este 11 Noroeste 0 898.8 0.5 81
2018-12-08 11:00:00 2.8 3 Oeste 18 Oeste 0 898.9 1.4 99
2018-12-08 10:00:00 -0.3 4 Oeste 16 Oeste 0 898.6 2 --
2018-12-08 09:00:00 -1 8 Oeste 19 Oeste 0 898.3 1.5 --
2018-12-08 08:00:00 -0.1 9 Oeste 23 Oeste 0 897.5 0.6 100
2018-12-08 07:00:00 0.7 6 Oeste 20 Oeste 0 896.6 0 100
2018-12-08 06:00:00 0.8 4 Oeste 18 Oeste 0 896.8 0.1 100
2018-12-08 05:00:00 1.6 4 Noroeste 15 Oeste 0 896.9 0.2 100
2018-12-08 04:00:00 2.3 3 Oeste 16 Sur 0 896.6 -0.5 99
2018-12-08 03:00:00 2.6 3 Oeste 11 Oeste 0 896.7 -0.3 99
2018-12-08 02:00:00 2.8 3 Noroeste 11 Oeste 0 896.7 -0.3 99
2018-12-08 01:00:00 3.3 6 Noroeste 14 Oeste 0 897.1 0.1 98
2018-12-08 00:00:00 3.5 4 Sudoeste 20 Sudoeste 0 897 0.1 98
2018-12-07 23:00:00 4.1 3 Oeste 13 Oeste 0 897 0.3 98
2018-12-07 22:00:00 4.3 2 Noroeste 13 Oeste 0 897 0.7 97
2018-12-07 21:00:00 4.1 3 Nordeste 15 Oeste 0 896.9 1.3 98
2018-12-07 20:00:00 4 4 Oeste 12 Oeste 0 896.7 1.7 94
2018-12-07 19:00:00 4.1 4 Nordeste 13 Oeste 0 896.3 1.8 95
2018-12-07 18:00:00 5.2 5 Nordeste 13 Oeste 0 895.6 1.4 84
2018-12-07 17:00:00 7.8 7 Este 17 Nordeste 0 895 0.3 73
2018-12-07 16:00:00 9.4 6 Este 16 Nordeste 0 894.5 -0.7 68
2018-12-07 15:00:00 8.6 6 Norte 16 Oeste 0 894.2 -1.4 70
2018-12-07 14:00:00 6.1 4 Norte 22 Oeste 0 894.7 -1.2 81
2018-12-07 13:00:00 2.4 6 Oeste 23 Oeste 0 895.2 -0.7 98
2018-12-07 12:00:00 0.9 5 Noroeste 20 Oeste 0 895.6 0.1 100
2018-12-07 11:00:00 0.1 4 Noroeste 17 Oeste 0 895.9 0.2 --
2018-12-07 10:00:00 -0.4 8 Sudoeste 19 Oeste 0 895.9 0.6 --
2018-12-07 09:00:00 -0.8 3 Oeste 18 Oeste 0 895.5 0.1 100
2018-12-07 08:00:00 -0.6 5 Oeste 19 Oeste 0 895.7 0.3 100
2018-12-07 07:00:00 -0.2 5 Sudoeste 17 Sudoeste 0 895.3 -0.8 100
2018-12-07 06:00:00 0.2 4 Sur 16 Oeste 0 895.4 -0.9 100
2018-12-07 05:00:00 0.7 2 Norte 16 Sur 0 895.4 -1.1 99
2018-12-07 04:00:00 1.2 3 Oeste 16 Oeste 0 896.1 -1 98
2018-12-07 03:00:00 1.7 4 Noroeste 9 Sur 0 896.3 -1.1 98
2018-12-07 02:00:00 1.8 2 Oeste 9 Noroeste 0 896.5 -1 97
2018-12-07 01:00:00 2.1 3 Oeste 8 Oeste 0 897.1 -0.6 95
2018-12-07 00:00:00 3.3 4 Noroeste 14 Oeste 0 897.4 -0.6 94
2018-12-06 23:00:00 4.2 5 Noroeste 17 Oeste 0 897.5 -0.8 93
2018-12-06 22:00:00 4.7 6 Noroeste 17 Oeste 0 897.7 -0.4 93
2018-12-06 21:00:00 4.8 3 Oeste 15 Oeste 0 898 0.1 97
2018-12-06 20:00:00 4.8 5 Oeste 15 Oeste 0 898.3 0.6 98
2018-12-06 19:00:00 4.8 5 Oeste 17 Oeste 0 898.1 0.5 98
2018-12-06 18:00:00 4.8 7 Noroeste 16 Oeste 0 897.9 0.1 98
2018-12-06 17:00:00 5 5 Oeste 15 Oeste 0 897.7 -0.4 98
2018-12-06 16:00:00 5.3 7 Noroeste 15 Oeste 0 897.6 -0.9 98
2018-12-06 15:00:00 5.5 6 Noroeste 15 Oeste 0 897.8 -1.2 99
2018-12-06 14:00:00 5.2 3 Sudeste 21 Sudoeste 0 898.1 -0.9 100
2018-12-06 13:00:00 4.5 4 Oeste 14 Oeste 0 898.5 0 100
2018-12-06 12:00:00 3.4 2 Noroeste 8 Oeste 0 899 1.1 100
2018-12-06 11:00:00 1.7 4 Oeste 18 Oeste 0 899 1.6 100
2018-12-06 10:00:00 0.7 4 Sur 15 Sur 0 898.5 1.4 --
2018-12-06 09:00:00 -0.4 4 Noroeste 19 Oeste 0 897.9 1 --
2018-12-06 08:00:00 -0.8 4 Norte 19 Oeste 0 897.4 0.6 --
2018-12-06 07:00:00 0.2 5 Noroeste 12 Oeste 0 897.1 0.1 100
2018-12-06 06:00:00 1.6 5 Oeste 18 Sudoeste 0 896.9 0.1 100
2018-12-06 05:00:00 1.9 5 Noroeste 12 Noroeste 0 896.8 0.2 100
2018-12-06 04:00:00 2.3 5 Oeste 14 Nordeste 0 897 0.3 100
2018-12-06 03:00:00 2.2 5 Noroeste 12 Oeste 0 896.8 0 100
2018-12-06 02:00:00 2 5 Este 12 Oeste 0 896.6 0.2 99
2018-12-06 01:00:00 2.1 6 Noroeste 17 Oeste 0 896.7 0.3 99
2018-12-06 00:00:00 2.5 4 Oeste 16 Oeste 0 896.8 0.6 98
2018-12-05 23:00:00 3 4 Oeste 16 Oeste 0 896.4 0.4 97
2018-12-05 22:00:00 3.3 6 Oeste 16 Oeste 0 896.4 0.9 97
2018-12-05 21:00:00 3.7 3 Sudoeste 15 Oeste 0 896.2 1.3 96
2018-12-05 20:00:00 4.3 3 Sur 18 Oeste 0 896 1.9 94
2018-12-05 19:00:00 4.9 7 Noroeste 18 Oeste 0 895.5 2.2 92
2018-12-05 18:00:00 5.9 8 Noroeste 17 Oeste 0 894.9 1.5 85
2018-12-05 17:00:00 10.2 9 Nordeste 18 Nordeste 0 894.1 0.6 66
2018-12-05 16:00:00 12.6 6 Este 25 Este 0 893.3 -0.1 59
2018-12-05 15:00:00 12.6 13 Este 33 Sudeste 0 893.4 -1.2 61
2018-12-05 14:00:00 14.9 13 Sudoeste 30 Sudeste 0 893.5 -0.9 47
2018-12-05 13:00:00 14.3 15 Sudeste 29 Este 0 893.4 -0.8 53
2018-12-05 12:00:00 12.8 6 Nordeste 21 Sur 0 894.6 0.5 65
2018-12-05 11:00:00 11.2 8 Este 21 Sudoeste 0 894.4 0.9 65
2018-12-05 10:00:00 10.6 9 Sudeste 19 Sur 0 894.2 0.8 63
2018-12-05 09:00:00 6.1 6 Sudoeste 17 Sur 0 894.1 0.9 72
2018-12-05 08:00:00 6.1 8 Sur 19 Sur 0 893.5 0.4 73
2018-12-05 07:00:00 5.7 6 Sudoeste 20 Oeste 0 893.4 0 74
2018-12-05 06:00:00 5 8 Norte 20 Nordeste 0 893.2 -0.1 83
2018-12-05 05:00:00 4.7 7 Nordeste 20 Oeste 0 893.1 -0.2 84
2018-12-05 04:00:00 4.8 10 Sur 23 Sur 0 893.4 -0.3 81
2018-12-05 03:00:00 4 8 Sudoeste 19 Nordeste 0 893.3 -0.4 92
2018-12-05 02:00:00 4.7 5 Nordeste 20 Oeste 0 893.3 -0.3 91
2018-12-05 01:00:00 4.3 4 Noroeste 21 Oeste 0 893.7 0.1 95
2018-12-05 00:00:00 4 6 Norte 24 Oeste 0 893.7 0.1 97
2018-12-04 23:00:00 5 9 Oeste 19 Oeste 0 893.6 0.1 99
2018-12-04 22:00:00 6.6 5 Oeste 17 Oeste 0 893.6 0.5 98
2018-12-04 21:00:00 7.3 5 Sudoeste 17 Oeste 0 893.6 0.8 98
2018-12-04 20:00:00 7.8 11 Noroeste 18 Oeste 0 893.5 0.9 98
2018-12-04 19:00:00 7.7 8 Nordeste 21 Nordeste 0 893.1 0.5 97
2018-12-04 18:00:00 8.4 5 Nordeste 19 Nordeste 0 892.8 0 91
2018-12-04 17:00:00 12.7 3 Oeste 16 Oeste 0 892.6 -0.7 76
2018-12-04 16:00:00 12.8 5 Este 17 Oeste 0 892.6 -1.3 75
2018-12-04 15:00:00 11.7 4 Norte 21 Oeste 0 892.8 -1.5 87
2018-12-04 14:00:00 9.6 5 Este 18 Oeste 0 893.3 -1.2 99
2018-12-04 13:00:00 7.9 10 Noroeste 18 Oeste 0 893.9 -0.4 99
2018-12-04 12:00:00 7.3 8 Sudeste 13 Sur 0 894.3 0.3 99
2018-12-04 11:00:00 6.1 3 Oeste 13 Oeste 0 894.5 0.8 99
2018-12-04 10:00:00 5.7 5 Oeste 16 Oeste 0.2 894.3 0.8 99
2018-12-04 09:00:00 5.4 5 Oeste 15 Oeste 0 894 0.7 99
2018-12-04 08:00:00 5.3 3 Oeste 16 Oeste 0 893.7 0.4 99
2018-12-04 07:00:00 -- -- -- -- -- -- -- -- --
2018-12-04 06:00:00 -- -- -- -- -- -- -- -- --
2018-12-04 05:00:00 -- -- -- -- -- -- -- -- --
2018-12-04 04:00:00 -- -- -- -- -- -- -- -- --
2018-12-04 03:00:00 -- -- -- -- -- -- -- -- --
2018-12-04 02:00:00 -- -- -- -- -- -- -- -- --
2018-12-04 01:00:00 -- -- -- -- -- -- -- -- --
2018-12-04 00:00:00 -- -- -- -- -- -- -- -- --
2018-12-03 23:00:00 -- -- -- -- -- -- -- -- --
2018-12-03 22:00:00 -- -- -- -- -- -- -- -- --
2018-12-03 21:00:00 -- -- -- -- -- -- -- -- --
2018-12-03 20:00:00 -- -- -- -- -- -- -- -- --
2018-12-03 19:00:00 -- -- -- -- -- -- -- -- --
2018-12-03 18:00:00 -- -- -- -- -- -- -- -- --
2018-12-03 17:00:00 -- -- -- -- -- -- -- -- --
2018-12-03 16:00:00 -- -- -- -- -- -- -- -- --
2018-12-03 15:00:00 -- -- -- -- -- -- -- -- --
2018-12-03 14:00:00 -- -- -- -- -- -- -- -- --
2018-12-03 13:00:00 -- -- -- -- -- -- -- -- --
2018-12-03 12:00:00 7.4 8 Sur 13 Norte 0.4 892.5 1.2 99
2018-12-03 11:00:00 6.5 6 Nordeste 28 Sudoeste 0 892.5 1.5 99
2018-12-03 10:00:00 5.7 16 Sur 29 Sur 0 891.3 0.2 99
2018-12-03 09:00:00 5 2 Sudoeste 15 Oeste 0 891.3 0.2 99
2018-12-03 08:00:00 4.8 3 Oeste 14 Oeste 0 891 -0.2 99
2018-12-03 07:00:00 4.6 5 Oeste 14 Oeste 0 891.1 -0.5 99
2018-12-03 06:00:00 3.6 7 Norte 12 Nordeste 0 891.1 -0.4 100
2018-12-03 05:00:00 3.5 8 Sudeste 19 Oeste 0 891.2 -0.3 99
2018-12-03 04:00:00 3.3 7 Sudoeste 16 Sur 0 891.6 0 99
2018-12-03 03:00:00 2.9 9 Noroeste 16 Oeste 0 891.5 0 99
2018-12-03 02:00:00 3.1 5 Nordeste 16 Oeste 0 891.5 0 99
2018-12-03 01:00:00 3.1 7 Nordeste 11 Oeste 0 891.6 0.4 99
2018-12-03 00:00:00 3.1 6 Nordeste 12 Oeste 0 891.5 0.5 98
2018-12-02 23:00:00 3.3 5 Sudeste 11 Oeste 0 891.5 0.6 98
2018-12-02 22:00:00 3.5 6 Este 11 Sur 0 891.2 0.5 96
2018-12-02 21:00:00 3.9 5 Este 13 Oeste 0 891 0.6 93
2018-12-02 20:00:00 4.6 6 Norte 13 Oeste 0 890.9 0.7 91
2018-12-02 19:00:00 5.9 5 Nordeste 13 Sur 0 890.7 0.9 81
2018-12-02 18:00:00 7.1 6 Sur 18 Sur 0 890.4 0.3 75
2018-12-02 17:00:00 8.4 10 Sur 32 Sudoeste 0 890.2 -0.2 68
2018-12-02 16:00:00 8.1 20 Sudoeste 37 Sudoeste 0 889.8 -0.9 72
2018-12-02 15:00:00 9.4 15 Sudoeste 36 Sudoeste 0 890.1 -0.8 68
2018-12-02 14:00:00 8.9 13 Sudoeste 36 Sur 0 890.4 -0.6 70
2018-12-02 13:00:00 9.1 15 Sudoeste 35 Sur 0 890.7 -0.2 67
2018-12-02 12:00:00 8.2 6 Nordeste 17 Oeste 0 890.9 -0.1 79
2018-12-02 11:00:00 5.6 2 Este 11 Oeste 0 891 0.3 98
2018-12-02 10:00:00 4.5 2 Este 10 Oeste 0 890.9 0.3 99
2018-12-02 09:00:00 4.1 0 Calma 14 Oeste 0 891 0.4 99
2018-12-02 08:00:00 4.1 2 Sur 4 Oeste 0 890.7 0.6 99
2018-12-02 07:00:00 3.9 3 Oeste 10 Oeste 0 890.6 0.6 99
2018-12-02 06:00:00 3.8 2 Oeste 15 Oeste 0 890.6 0.1 99
2018-12-02 05:00:00 3.6 7 Noroeste 15 Norte 0 890.1 -0.3 99
2018-12-02 04:00:00 2.9 5 Norte 12 Oeste 0 890 -0.3 98
2018-12-02 03:00:00 3.6 6 Norte 13 Norte 0 890.5 0.1 97
2018-12-02 02:00:00 4 6 Norte 12 Oeste 0 890.4 -0.3 95
2018-12-02 01:00:00 4.1 5 Nordeste 18 Oeste 0 890.3 -0.2 94
2018-12-02 00:00:00 3.9 6 Norte 19 Sur 0 890.4 -0.1 95
2018-12-01 23:00:00 4.4 7 Noroeste 14 Oeste 0 890.7 0.5 91
2018-12-01 22:00:00 6.1 7 Sur 21 Sur 0 890.5 0.4 86
2018-12-01 21:00:00 5.8 6 Sur 15 Sur 0 890.5 0.8 90
2018-12-01 20:00:00 5.9 5 Nordeste 14 Oeste 0 890.2 0.6 88
2018-12-01 19:00:00 6.5 5 Nordeste 15 Oeste 0 890.1 0.7 81
2018-12-01 18:00:00 7.5 6 Oeste 21 Oeste 0 889.7 0.5 75
2018-12-01 17:00:00 8.7 6 Norte 18 Nordeste 0 889.6 -0.1 71
2018-12-01 16:00:00 8.9 7 Nordeste 19 Nordeste 0 889.4 -0.7 70
2018-12-01 15:00:00 9.6 6 Nordeste 19 Oeste 0 889.2 -1.4 67
2018-12-01 14:00:00 9.4 8 Sur 16 Este 0 889.7 -0.7 64
2018-12-01 13:00:00 7 7 Sudeste 13 Nordeste 0 890.1 -0.1 76
2018-12-01 12:00:00 6.1 5 Sudeste 12 Noroeste 0 890.6 0.6 78
2018-12-01 11:00:00 4.2 6 Norte 14 Norte 0 890.4 0.8 88
2018-12-01 10:00:00 3.8 7 Norte 16 Nordeste 0 890.2 0.8 90
2018-12-01 09:00:00 3.6 9 Noroeste 13 Noroeste 0 890 0.5 86
2018-12-01 08:00:00 4.4 3 Sur 15 Oeste 0 889.6 -0.2 75
2018-12-01 07:00:00 4.8 8 Oeste 27 Sudoeste 0 889.4 -0.8 72
2018-12-01 06:00:00 4.4 6 Oeste 27 Oeste 0 889.5 -1 78
2018-12-01 05:00:00 4.5 8 Oeste 30 Oeste 0 889.8 -0.7 76
2018-12-01 04:00:00 4.2 8 Sudoeste 31 Oeste 0 890.2 -0.8 80
2018-12-01 03:00:00 3.1 9 Sudoeste 31 Oeste 0 890.5 -0.7 96
2018-12-01 02:00:00 1.7 6 Nordeste 10 Norte 0 890.5 -1.3 100
2018-12-01 01:00:00 1.4 3 Nordeste 7 Oeste 0 891 -0.9 100
2018-12-01 00:00:00 1.4 0 Calma 19 Oeste 0 891.2 -0.9 100
2018-11-30 23:00:00 1.6 3 Oeste 16 Sudoeste 0 891.8 -0.1 100
2018-11-30 22:00:00 1.4 3 Noroeste 6 Oeste 0 891.9 0.5 99
2018-11-30 21:00:00 1.4 3 Oeste 7 Noroeste 0 892.1 1.2 98
2018-11-30 20:00:00 2.3 2 Noroeste 7 Noroeste 0 891.9 1 98
2018-11-30 19:00:00 2.5 3 Oeste 8 Noroeste 0 891.4 1 97
2018-11-30 18:00:00 3.1 0 Calma 4 Oeste 0 890.9 0.6 97
2018-11-30 17:00:00 3.4 2 Noroeste 11 Oeste 0 890.9 1 96
2018-11-30 16:00:00 3.9 5 Este 12 Sur 0 890.4 0.3 94
2018-11-30 15:00:00 3.7 5 Sudeste 13 Sudeste 0 890.3 0.2 96
2018-11-30 14:00:00 4 5 Este 11 Sur 0 889.9 -0.1 95
2018-11-30 13:00:00 3.2 4 Este 19 Sur 0 890.1 0.4 99
2018-11-30 12:00:00 1.7 2 Nordeste 18 Sudoeste 0 890.1 1.3 99
2018-11-30 11:00:00 0.4 3 Norte 17 Sudoeste 0 890 1.6 99
2018-11-30 10:00:00 0.1 9 Sudoeste 18 Oeste 0 889.7 1.8 99
2018-11-30 09:00:00 -1.2 3 Oeste 22 Oeste 0 888.8 1.3 99
2018-11-30 08:00:00 -1.2 6 Noroeste 21 Oeste 0 888.4 1.4 100
2018-11-30 07:00:00 -1.5 9 Noroeste 19 Oeste 0 887.9 0.8 --
2018-11-30 06:00:00 -1.1 4 Oeste 18 Oeste 0 887.5 0.5 100
2018-11-30 05:00:00 -0.8 3 Norte 17 Oeste 0 887 -0.2 100
2018-11-30 04:00:00 -0.6 4 Oeste 17 Oeste 0 887.1 -0.1 100
2018-11-30 03:00:00 -0.5 5 Oeste 15 Oeste 0 887 -0.1 100
2018-11-30 02:00:00 -0.5 4 Noroeste 18 Oeste 0 887.2 0.1 99
2018-11-30 01:00:00 0.6 3 Sudoeste 16 Sudoeste 0 887.2 0.4 99
2018-11-30 00:00:00 1.9 4 Oeste 7 Sudoeste 0 887.1 0.6 99
2018-11-29 23:00:00 1.9 3 Noroeste 12 Sudoeste 0 887.1 0.6 99
2018-11-29 22:00:00 1.7 6 Noroeste 13 Oeste 0 886.8 0.7 98
2018-11-29 21:00:00 2.3 7 Noroeste 30 Sudoeste 0 886.5 0.5 97
2018-11-29 20:00:00 3.6 6 Sur 23 Sudoeste 0 886.5 0.6 98
2018-11-29 19:00:00 3.3 7 Nordeste 19 Sudoeste 0 886.1 -0.3 98
2018-11-29 18:00:00 3.2 8 Este 14 Este 0 886 -1.1 97
2018-11-29 17:00:00 3 6 Nordeste 12 Sur 0 885.9 -0.9 96
2018-11-29 16:00:00 3 7 Sudeste 28 Sudoeste 0.6 886.4 -0.7 94
2018-11-29 15:00:00 3.4 9 Sudeste 31 Oeste 0.2 887.1 -0.8 91
2018-11-29 14:00:00 5.1 8 Sur 23 Oeste 0 886.8 -0.9 83
2018-11-29 13:00:00 5 7 Norte 34 Oeste 0 887.1 -0.4 79
2018-11-29 12:00:00 5 6 Sur 27 Oeste 0 887.9 0.4 74
2018-11-29 11:00:00 6.6 11 Sudoeste 33 Oeste 0 887.7 0.3 57
2018-11-29 10:00:00 5.7 10 Sudoeste 33 Sudoeste 0 887.5 0.5 56
2018-11-29 09:00:00 3 10 Oeste 31 Sudoeste 0 887.5 0.1 70
2018-11-29 08:00:00 1.5 8 Norte 38 Sudoeste 0 887.4 -0.1 79
2018-11-29 07:00:00 1.3 5 Sur 22 Sur 0 887 -0.8 77
2018-11-29 06:00:00 0.9 6 Este 17 Sudoeste 0 887.4 -0.7 82
2018-11-29 05:00:00 2.3 8 Norte 19 Oeste 0 887.5 -1 69
2018-11-29 04:00:00 2.7 8 Este 15 Este 0 887.8 -1.1 69
2018-11-29 03:00:00 2.4 7 Norte 15 Oeste 0 888.1 -1.1 73
2018-11-29 02:00:00 3.5 5 Nordeste 19 Oeste 0 888.5 -1.4 69
2018-11-29 01:00:00 2.1 6 Noroeste 18 Nordeste 0 888.9 -1.2 87
2018-11-29 00:00:00 1.6 6 Oeste 17 Oeste 0 889.2 -1 89
2018-11-28 23:00:00 1.1 5 Noroeste 13 Oeste 0 889.9 -0.4 92
2018-11-28 22:00:00 0.9 4 Norte 12 Oeste 0 890.1 -0.2 91
2018-11-28 21:00:00 1.5 0 Calma 12 Oeste 0 890.2 -0.1 86
2018-11-28 14:00:00 12.2 6 Nordeste 19 Nordeste 0 890.6 -1.2 44
2018-11-28 13:00:00 10.9 7 Nordeste 19 Nordeste 0 891.1 -0.4 47
2018-11-28 12:00:00 8.3 5 Sudoeste 16 Oeste 0 891.8 0.8 63
2018-11-28 11:00:00 5.5 5 Norte 13 Noroeste 0 891.8 0.9 70
2018-11-28 10:00:00 2.5 2 Nordeste 14 Sudoeste 0 891.5 1 84
2018-11-28 09:00:00 0.5 0 Calma 10 Sudoeste 0 891 0.7 93
2018-11-28 08:00:00 0.8 6 Norte 12 Noroeste 0 890.9 0.6 90
2018-11-28 07:00:00 1.2 6 Norte 13 Noroeste 0 890.5 0 85
2018-11-28 06:00:00 3 6 Norte 27 Sudoeste 0 890.3 -0.2 71
2018-11-28 05:00:00 4.5 10 Sudoeste 28 Sur 0 890.3 -0.2 66
2018-11-28 04:00:00 4.6 8 Sudoeste 18 Sudoeste 0 890.5 -0.2 53
2018-11-28 03:00:00 3.4 8 Noroeste 17 Oeste 0 890.5 -0.4 76
2018-11-28 02:00:00 2.8 6 Norte 13 Oeste 0 890.5 -0.3 82
2018-11-28 01:00:00 2.4 7 Norte 12 Noroeste 0 890.7 -0.3 84
2018-11-28 00:00:00 2.1 6 Norte 10 Oeste 0 890.9 0.3 77
2018-11-27 23:00:00 2.8 6 Oeste 15 Oeste 0 890.8 -0.1 62
2018-11-27 22:00:00 2.8 5 Sur 13 Oeste 0 891 0.2 73
2018-11-27 21:00:00 2.3 7 Nordeste 16 Noroeste 0 890.6 -0.2 85
2018-11-27 20:00:00 3.6 5 Nordeste 14 Oeste 0 890.9 0.5 72
2018-11-27 19:00:00 4.5 5 Noroeste 28 Sur 0 890.8 0.6 72
2018-11-27 18:00:00 5.4 10 Sur 23 Sudoeste 0 890.8 0.5 68
2018-11-27 17:00:00 6.9 6 Sur 20 Oeste 0 890.4 -0.2 65
2018-11-27 16:00:00 7.8 8 Sudoeste 21 Sur 0 890.2 -0.8 56
2018-11-27 15:00:00 7.7 11 Sur 23 Sudeste 0 890.3 -1.3 61
2018-11-27 14:00:00 7.8 13 Sur 24 Sudeste 0 890.6 -0.9 61
2018-11-27 13:00:00 6.9 6 Sudeste 15 Sur 0 891 -0.1 66
2018-11-27 12:00:00 3.7 2 Nordeste 15 Sudoeste 0 891.6 1 77
2018-11-27 11:00:00 2.1 5 Sur 18 Sur 0 891.5 0.9 86
2018-11-27 10:00:00 -0.2 4 Oeste 15 Oeste 0 891.1 0.6 91
2018-11-27 09:00:00 -1.2 4 Oeste 15 Sudoeste 0 890.6 -0.1 91
2018-11-27 08:00:00 -1.1 4 Oeste 17 Oeste 0 890.6 -0.3 87
2018-11-27 07:00:00 -0.3 6 Noroeste 16 Oeste 0 890.5 -0.5 83
2018-11-27 06:00:00 0 5 Noroeste 16 Sur 0 890.7 -0.4 84
2018-11-27 05:00:00 0.2 4 Oeste 20 Oeste 0 890.9 -0.3 84
2018-11-27 04:00:00 0.4 6 Noroeste 18 Oeste 0 891 -0.2 85
2018-11-27 03:00:00 0.7 6 Noroeste 18 Oeste 0 891.1 0 83
2018-11-27 02:00:00 0.4 6 Noroeste 14 Noroeste 0 891.2 0.4 86
2018-11-27 01:00:00 0.6 5 Oeste 11 Noroeste 0 891.2 0.4 85
2018-11-27 00:00:00 0.9 5 Oeste 14 Noroeste 0 891.1 0.8 86
2018-11-26 23:00:00 1.3 5 Noroeste 13 Noroeste 0 890.8 1.2 85
2018-11-26 22:00:00 0.8 6 Oeste 18 Oeste 0 890.8 2.1 90
2018-11-26 21:00:00 1.2 5 Noroeste 10 Noroeste 0 890.3 2.4 90
2018-11-26 20:00:00 2.2 8 Noroeste 17 Noroeste 0 889.6 2.4 85
2018-11-26 19:00:00 2.3 8 Noroeste 15 Oeste 0 888.7 2.5 88
2018-11-26 18:00:00 3.8 3 Noroeste 19 Norte 0 887.9 2.4 78
2018-11-26 17:00:00 6.6 10 Norte 22 Noroeste 0 887.2 2.1 65
2018-11-26 16:00:00 8.2 12 Norte 23 Noroeste 0 886.2 1.4 54
2018-11-26 15:00:00 8.8 12 Noroeste 24 Noroeste 0 885.5 0.7 55
2018-11-26 14:00:00 7.9 8 Noroeste 15 Sur 0 885.1 1.2 63
2018-11-26 13:00:00 7.6 7 Sudeste 15 Sur 0 884.8 1.7 69
2018-11-26 12:00:00 4.8 3 Sudoeste 14 Sudoeste 0 884.8 2.8 88
2018-11-26 11:00:00 3.7 3 Oeste 16 Sur 0 883.9 3.3 89
2018-11-26 10:00:00 1.1 4 Norte 10 Noroeste 0.2 883.1 3.8 97
2018-11-26 09:00:00 0.5 5 Noroeste 21 Oeste 0 882 3.9 98
2018-11-26 08:00:00 -0.1 3 Noroeste 16 Sudoeste 0 880.6 3.7 98
2018-11-26 07:00:00 0.3 2 Oeste 15 Oeste 0.2 879.3 3 97
2018-11-26 06:00:00 0.3 5 Nordeste 14 Sur 0.4 878.1 2.6 98
2018-11-26 05:00:00 0.4 6 Sudoeste 19 Sur 0.6 876.9 2.2 97
2018-11-26 04:00:00 0.2 2 Noroeste 16 Oeste 0.2 876.3 1.2 97
2018-11-26 03:00:00 0.4 3 Noroeste 10 Oeste 1 875.5 -0.1 96
2018-11-26 02:00:00 0.8 3 Oeste 17 Oeste 0.2 874.7 -1.8 95
2018-11-26 01:00:00 1.2 4 Oeste 14 Oeste 0.2 875.1 -1.9 92
2018-11-26 00:00:00 2.2 4 Oeste 22 Oeste 0 875.6 -1.8 80
2018-11-25 23:00:00 3.6 5 Oeste 25 Oeste 0 876.5 -1.1 65
2018-11-25 22:00:00 3.5 6 Oeste 21 Oeste 0 877 -0.8 61
2018-11-25 21:00:00 3.5 8 Noroeste 14 Oeste 0 877.4 -0.4 70
2018-11-25 20:00:00 3.9 4 Nordeste 14 Oeste 0 877.6 -0.2 64
2018-11-25 19:00:00 4.1 7 Noroeste 15 Oeste 0 877.8 -0.5 63
2018-11-25 18:00:00 5.2 6 Oeste 23 Sudoeste 0 877.8 -0.9 54
2018-11-25 17:00:00 6.3 10 Sudoeste 25 Sudoeste 0 877.8 -1.9 57
2018-11-25 16:00:00 8.4 10 Sudoeste 33 Sudoeste 0 878.3 -1.7 57
2018-11-25 15:00:00 8.5 8 Sur 27 Sudoeste 0 878.7 -1.6 57
2018-11-25 14:00:00 8.2 10 Sur 22 Sur 0 879.7 -0.7 57
2018-11-25 13:00:00 8.9 6 Sudeste 13 Sur 0 880 0 60
2018-11-25 12:00:00 7.9 5 Sudeste 19 Sur 0 880.3 0.8 58
2018-11-25 11:00:00 4.7 2 Sur 18 Sudoeste 0 880.4 1.4 71
2018-11-25 10:00:00 1.8 3 Noroeste 15 Oeste 0 880 1.9 85
2018-11-25 09:00:00 0.1 4 Noroeste 19 Oeste 0 879.5 1.8 94
2018-11-25 08:00:00 0 6 Oeste 9 Oeste 0 879 1.9 96
2018-11-25 07:00:00 0.9 4 Oeste 15 Oeste 0 878.1 1.2 96
2018-11-25 06:00:00 1.6 9 Norte 18 Oeste 0 877.7 1 94
2018-11-25 05:00:00 3.2 6 Oeste 17 Oeste 0 877.1 0.5 97
2018-11-25 04:00:00 4.4 9 Noroeste 19 Oeste 0.2 876.9 0.4 96
2018-11-25 03:00:00 4.8 8 Norte 27 Oeste 0.6 876.7 0.3 95
2018-11-25 02:00:00 4.9 13 Sudoeste 42 Sudoeste 1.8 876.6 -0.1 96
2018-11-25 01:00:00 4.4 26 Sudoeste 53 Sudoeste 3.4 876.5 -1.3 96
2018-11-25 00:00:00 4 31 Sudoeste 63 Sudoeste 3.6 876.4 -1.9 96
2018-11-24 23:00:00 4 34 Sudoeste 58 Sudoeste 2.4 876.7 -2.5 96
2018-11-24 22:00:00 3.9 34 Sudoeste 63 Sudoeste 1.8 877.8 -1.9 96
2018-11-24 21:00:00 3.7 31 Sudoeste 66 Sudoeste 3 878.3 -1.8 96
2018-11-24 20:00:00 3.6 25 Sudoeste 58 Sudoeste 4.6 879.2 -1.4 95
2018-11-24 19:00:00 4.3 27 Sudoeste 59 Sur 2 879.7 -1.5 94
2018-11-24 18:00:00 4.5 28 Sudoeste 55 Sudoeste 0.6 880.1 -1.5 93
2018-11-24 17:00:00 4.6 21 Sudoeste 41 Sudoeste 0.4 880.6 -1.9 92
2018-11-24 16:00:00 5.4 19 Sudoeste 40 Sur 0.2 881.2 -1.8 88
2018-11-24 15:00:00 4.8 18 Sudoeste 60 Sur 0.4 881.6 -1.9 93
2018-11-24 14:00:00 4.7 20 Sudoeste 40 Sudoeste 0.2 882.5 -1 95
2018-11-24 13:00:00 5.5 17 Sudoeste 34 Sudoeste 0.2 883 -0.4 93
2018-11-24 12:00:00 5.2 15 Sudoeste 38 Sudoeste 0 883.5 0.4 96
2018-11-24 11:00:00 4.3 16 Sudoeste 33 Sur 0.2 883.5 0.7 97
2018-11-24 10:00:00 4 6 Sudoeste 27 Sudoeste 0.2 883.4 0.8 97
2018-11-24 09:00:00 3.6 8 Sudoeste 31 Sur 0.8 883.1 0.5 97
2018-11-24 08:00:00 3.4 6 Sudoeste 26 Sudoeste 0.4 882.8 0 97
2018-11-24 07:00:00 3.4 12 Sudoeste 31 Sudoeste 0.2 882.6 -0.6 97
2018-11-24 06:00:00 3.4 13 Sudoeste 35 Sudoeste 0.4 882.6 -0.4 97
2018-11-24 05:00:00 3.3 12 Sudoeste 32 Sur 1.4 882.8 -0.5 98
2018-11-24 04:00:00 3.1 9 Sudoeste 30 Sur 2.2 883.2 -0.4 98
2018-11-24 03:00:00 2.5 13 Sudoeste 31 Sudoeste 2.6 883 -0.5 97
2018-11-24 02:00:00 2.5 12 Sur 29 Sur 1.4 883.3 0.2 97
2018-11-24 01:00:00 2.6 10 Sudoeste 33 Sur 0 883.6 0.7 96
2018-11-24 00:00:00 2.8 15 Sudoeste 34 Sudoeste 0 883.5 0.8 93
2018-11-23 23:00:00 2.8 15 Sudoeste 29 Sur 0 883.1 0.6 93
2018-11-23 22:00:00 3 9 Sudoeste 29 Sudoeste 0 882.9 0.6 91
2018-11-23 21:00:00 3.1 12 Sudoeste 37 Sudoeste 0.2 882.7 0.7 94
2018-11-23 20:00:00 3.1 14 Sudoeste 33 Sur 0 882.5 0.9 93
2018-11-23 19:00:00 2 6 Oeste 27 Sur 1 882.3 1 96
2018-11-23 18:00:00 2.6 9 Noroeste 37 Sur 1.6 882 0.7 91
2018-11-23 17:00:00 3.9 18 Sudoeste 38 Sur 0 881.6 0.2 78
2018-11-23 16:00:00 4.4 16 Sudoeste 34 Sur 0 881.3 -0.2 74
2018-11-23 15:00:00 7.3 13 Sudoeste 32 Oeste 0 881.3 -0.7 57
2018-11-23 14:00:00 5.6 12 Sudoeste 30 Sudoeste 0 881.4 -0.6 64
2018-11-23 13:00:00 5.7 16 Sudoeste 36 Sudoeste 0 881.5 -0.3 65
2018-11-23 12:00:00 4.2 11 Sudoeste 28 Sudoeste 0 882 0.4 75
2018-11-23 11:00:00 3.9 4 Sur 30 Sudoeste 0 882 0.8 83
2018-11-23 10:00:00 3.3 10 Sudoeste 28 Sudoeste 0.2 881.8 0.7 85
2018-11-23 09:00:00 2.9 6 Sudoeste 27 Sudoeste 0 881.6 0.6 86
2018-11-23 08:00:00 2.9 7 Sudoeste 30 Sudoeste 0 881.2 0.1 88
2018-11-23 07:00:00 3.1 9 Oeste 22 Oeste 0 881.1 -0.2 89
2018-11-23 06:00:00 3.3 4 Sudoeste 28 Sudoeste 0 881 -0.6 91
2018-11-23 05:00:00 3.1 5 Nordeste 23 Sudoeste 0 881.1 -0.7 96
2018-11-23 04:00:00 3.1 8 Sudoeste 27 Sudoeste 0 881.3 -0.8 94
2018-11-23 03:00:00 3.2 3 Oeste 30 Sudoeste 0.4 881.6 -0.6 93
2018-11-23 02:00:00 3.7 6 Sudoeste 34 Sur 0 881.8 -0.5 89
2018-11-23 01:00:00 4.3 18 Sudoeste 36 Sur 0 882.1 -0.2 87
2018-11-23 00:00:00 3.9 13 Sudoeste 40 Sudoeste 0.2 882.2 -0.4 90
2018-11-22 23:00:00 3.5 18 Sudoeste 36 Sudoeste 0 882.3 -0.1 91
2018-11-22 22:00:00 3.4 13 Sudoeste 48 Sur 0.4 882.3 0 91
2018-11-22 21:00:00 3.6 17 Sudoeste 37 Sudoeste 0.6 882.6 0.5 93
2018-11-22 20:00:00 3.5 18 Sudoeste 42 Sur 1.6 882.4 0.5 94
2018-11-22 19:00:00 4.1 20 Sudoeste 40 Sur 0.2 882.3 0.5 94
2018-11-22 18:00:00 4.2 12 Sudoeste 40 Sudoeste 0 882.1 0 82
2018-11-22 17:00:00 4.7 22 Sudoeste 42 Sur 0 881.9 -0.4 79
2018-11-22 16:00:00 4.6 18 Sudoeste 42 Sudoeste 0.2 881.8 -0.9 86
2018-11-22 15:00:00 5.4 17 Sudoeste 42 Sudoeste 0 882.1 -1 78
2018-11-22 14:00:00 5.6 18 Sudoeste 37 Sudoeste 0.4 882.3 -0.9 80
2018-11-22 13:00:00 5.3 20 Sudoeste 40 Sudoeste 0 882.7 -0.3 88
2018-11-22 12:00:00 5 20 Sudoeste 48 Sudoeste 0.8 883.1 0.4 89
2018-11-22 11:00:00 3.4 15 Sudoeste 40 Sudoeste 0.8 883.2 0.9 96
2018-11-22 10:00:00 2.8 17 Sudoeste 33 Sudoeste 0.4 883 1.1 96
2018-11-22 09:00:00 2.4 17 Sudoeste 42 Sudoeste 1 882.7 0.9 95
2018-11-22 08:00:00 2.3 12 Sudoeste 34 Sudoeste 1 882.3 1.1 96
2018-11-22 07:00:00 2.7 20 Sudoeste 43 Sudoeste 0.6 881.9 0.3 94
2018-11-22 06:00:00 2.5 22 Sudoeste 44 Sudoeste 0.2 881.8 0.5 93
2018-11-22 05:00:00 2.3 29 Sudoeste 53 Sudoeste 0.2 881.2 0 91
2018-11-22 04:00:00 2.5 19 Sudoeste 52 Sudoeste 0.2 881.6 0.3 92
2018-11-22 03:00:00 2.9 28 Sudoeste 55 Sur 0 881.3 0 90
2018-11-22 02:00:00 2.7 23 Sudoeste 47 Sudoeste 0 881.2 0 90
2018-11-22 01:00:00 2.6 24 Sudoeste 55 Sudoeste 0.4 881.3 0.4 92
2018-11-22 00:00:00 3.1 22 Sudoeste 48 Sudoeste 0.2 881.3 0.8 94
2018-11-21 23:00:00 3.1 22 Sudoeste 46 Sudoeste 0.4 881.2 1 92
2018-11-21 22:00:00 3.4 23 Sudoeste 49 Sudoeste 0 880.9 1.2 89
2018-11-21 21:00:00 3.4 21 Sudoeste 49 Sur 0 880.5 1.7 92
2018-11-21 20:00:00 3.5 23 Sudoeste 41 Sudoeste 0.6 880.2 1.5 94
2018-11-21 19:00:00 3.4 15 Sudoeste 48 Sudoeste 1.6 879.7 1.5 93
2018-11-21 18:00:00 4.3 21 Sudoeste 50 Sudoeste 0 878.8 0.5 86
2018-11-21 17:00:00 4.4 17 Sudoeste 50 Sudoeste 0 878.7 0.6 86
2018-11-21 16:00:00 4.4 16 Sudoeste 44 Sudoeste 0.2 878.2 0 90
2018-11-21 15:00:00 3.3 12 Sudoeste 33 Oeste 1.6 878.3 0.2 91
2018-11-21 14:00:00 6.6 12 Sudoeste 33 Sur 0.2 878.1 0.5 85
2018-11-21 13:00:00 5 16 Sudoeste 32 Sur 0 878.2 1.3 93
2018-11-21 12:00:00 3.3 6 Norte 11 Sudeste 0 878.1 1.8 100
2018-11-21 11:00:00 1.9 4 Noroeste 10 Sudoeste 0.4 877.6 1.9 100
2018-11-21 10:00:00 1.3 2 Norte 16 Sudoeste 1 876.9 1.7 100
2018-11-21 09:00:00 1 3 Oeste 10 Oeste 0.2 876.3 1.5 100
2018-11-21 08:00:00 0.8 3 Norte 10 Noroeste 0 875.7 1.4 100
2018-11-21 07:00:00 0.5 5 Nordeste 8 Oeste 0 875.2 1.1 --
2018-11-21 06:00:00 0.2 5 Noroeste 18 Sudoeste 0 874.8 1 --
2018-11-21 05:00:00 0 4 Noroeste 17 Sur 0 874.3 0.5 100
2018-11-21 04:00:00 0.2 4 Este 14 Sur 0 874.1 0.2 100
2018-11-21 03:00:00 0.1 3 Nordeste 16 Este 0.2 873.8 0.1 100
2018-11-21 02:00:00 0.1 4 Este 14 Oeste 0.2 873.8 0.4 100
2018-11-21 01:00:00 0.1 3 Nordeste 14 Oeste 0.4 873.9 0.7 100
2018-11-21 00:00:00 0.2 2 Noroeste 17 Este 0.4 873.7 0.8 100
2018-11-20 23:00:00 0.2 4 Este 18 Este 0.4 873.4 1.1 100
2018-11-20 22:00:00 0.1 6 Este 17 Este 0.4 873.2 1.5 100
2018-11-20 21:00:00 0.2 3 Nordeste 18 Este 0.4 872.9 1.7 99
2018-11-20 20:00:00 0.4 6 Este 21 Sudeste 1 872.3 1.5 98
2018-11-20 19:00:00 1.5 7 Este 13 Este 0.2 871.7 1.5 98
2018-11-20 18:00:00 2 8 Sudeste 13 Sudeste 0.2 871.2 1.2 97
2018-11-20 17:00:00 3 4 Nordeste 11 Noroeste 0 870.8 0.8 95
2018-11-20 16:00:00 3.5 4 Este 13 Sur 0 870.2 0.1 96
2018-11-20 15:00:00 3.3 4 Sudeste 17 Sur 0.2 870 -0.3 97
2018-11-20 14:00:00 2.8 4 Sudeste 12 Sudeste 0 870 0.2 98
2018-11-20 13:00:00 2.7 5 Este 19 Sudeste 1 870.1 0.5 98
2018-11-20 12:00:00 2.9 9 Sudeste 18 Sudeste 0.4 870.3 0.7 98
2018-11-20 11:00:00 3.3 3 Este 12 Oeste 0 869.8 0.3 99
2018-11-20 10:00:00 3 6 Noroeste 13 Noroeste 0 869.6 -0.1 99
2018-11-20 09:00:00 2.8 0 Calma 11 Oeste 0 869.6 -0.3 99
2018-11-20 08:00:00 2.8 2 Nordeste 10 Oeste 0.2 869.5 -0.7 99
2018-11-20 07:00:00 2.5 2 Norte 10 Oeste 0 869.7 -0.9 99
2018-11-20 06:00:00 2.3 2 Nordeste 12 Oeste 0 869.9 -1.2 98
2018-11-20 05:00:00 2.9 5 Oeste 16 Oeste 0 870.2 -1.3 97
2018-11-20 04:00:00 2.6 4 Oeste 15 Oeste 0 870.6 -1.4 98
2018-11-20 03:00:00 2.7 3 Oeste 15 Oeste 0 871.1 -1.2 98
2018-11-20 02:00:00 2.7 4 Noroeste 13 Oeste 0 871.5 -1.2 98
2018-11-20 01:00:00 2.9 3 Oeste 16 Oeste 0 872 -1.1 97
2018-11-20 00:00:00 3.8 5 Oeste 17 Oeste 0 872.3 -0.9 96
2018-11-19 23:00:00 4.4 8 Oeste 18 Oeste 0 872.7 -0.5 96
2018-11-19 22:00:00 4.2 5 Noroeste 16 Oeste 0 873.1 -0.2 94
2018-11-19 21:00:00 4.7 7 Oeste 17 Oeste 0 873.2 -0.1 92
2018-11-19 20:00:00 5.2 9 Noroeste 17 Norte 0 873.2 -0.1 90
2018-11-19 19:00:00 6.4 6 Norte 17 Nordeste 0 873.3 -0.2 85
2018-11-19 18:00:00 7.7 6 Norte 18 Nordeste 0 873.3 -0.3 84
2018-11-19 17:00:00 8.9 10 Sur 17 Sur 0 873.3 -1 76
2018-11-19 16:00:00 9.3 8 Sur 17 Nordeste 0 873.5 -1.4 75
2018-11-19 15:00:00 10 8 Sudeste 22 Sur 0 873.6 -1.9 69
2018-11-19 14:00:00 10 13 Sudeste 21 Sur 0 874.3 -1.7 72
2018-11-19 13:00:00 9.3 8 Sur 17 Oeste 0 874.9 -1.2 75
2018-11-19 12:00:00 7.6 4 Sur 14 Sur 0 875.5 -0.7 92
2018-11-19 11:00:00 6.1 3 Sudeste 13 Sur 0 876 -0.1 98
2018-11-19 10:00:00 5.5 6 Sudeste 15 Oeste 0 876.1 0 98
2018-11-19 09:00:00 5.2 4 Oeste 16 Oeste 0 876.2 0.2 98
2018-11-19 08:00:00 5.1 10 Oeste 17 Oeste 0 876.1 0 98
2018-11-19 07:00:00 5 3 Nordeste 12 Oeste 0 876.1 -0.2 99
2018-11-19 06:00:00 4.9 5 Este 14 Oeste 0 876 -0.5 99
2018-11-19 05:00:00 4.9 9 Noroeste 13 Oeste 0 876.1 -0.4 99
2018-11-19 04:00:00 4.9 6 Norte 15 Sur 0 876.3 -0.4 99
2018-11-19 03:00:00 4.9 8 Sudeste 15 Sudeste 0 876.5 -0.4 99
2018-11-19 02:00:00 5 9 Sudeste 31 Sudeste 0.2 876.5 -0.2 99
2018-11-19 01:00:00 5 11 Sudeste 29 Este 0.8 876.7 0.2 99
2018-11-19 00:00:00 5.1 12 Sudeste 24 Este 1 876.9 0.8 99
2018-11-18 23:00:00 5 12 Sudeste 25 Este 1.4 876.7 0.7 99
2018-11-18 22:00:00 5 10 Sudeste 31 Este 5 876.5 0.6 99
2018-11-18 21:00:00 5.1 12 Sudeste 24 Este 0.2 876.1 0.3 98
2018-11-18 20:00:00 5.4 9 Sudeste 22 Sudeste 0 876 0.4 98
2018-11-18 19:00:00 5.8 8 Sudeste 23 Este 5.6 875.9 0.1 96
2018-11-18 18:00:00 6.5 10 Este 24 Este 0 875.8 -0.2 94
2018-11-18 17:00:00 7.7 10 Este 24 Sudeste 0 875.6 -0.9 87
2018-11-18 16:00:00 8.9 13 Sudeste 25 Este 0 875.8 -1.3 79
2018-11-18 15:00:00 10.6 11 Este 19 Sur 0 876 -1.8 71
2018-11-18 14:00:00 11.3 10 Sudeste 19 Sur 0 876.5 -1.9 68
2018-11-18 13:00:00 10 9 Este 16 Este 0 877.1 -1.3 75
2018-11-18 12:00:00 7.9 4 Sur 13 Sur 0 877.8 -0.6 85
2018-11-18 11:00:00 5.8 5 Sudoeste 13 Este 0 878.4 0.1 88
2018-11-18 10:00:00 6.7 7 Sudoeste 18 Oeste 0 878.4 -0.1 90
2018-11-18 09:00:00 3.4 8 Noroeste 18 Oeste 0 878.4 -0.4 92
2018-11-18 08:00:00 3.1 8 Oeste 18 Oeste 0 878.3 -0.8 94
2018-11-18 07:00:00 3.4 9 Oeste 19 Oeste 0 878.5 -1.1 91
2018-11-18 06:00:00 3.5 8 Noroeste 19 Oeste 0 878.8 -1.5 92
2018-11-18 05:00:00 3.4 9 Noroeste 18 Oeste 0 879.1 -1.9 92
2018-11-18 04:00:00 4 11 Noroeste 20 Oeste 0 879.6 -2 93
2018-11-18 03:00:00 4 10 Oeste 19 Noroeste 0 880.3 -1.8 92
2018-11-18 02:00:00 4.8 10 Noroeste 22 Oeste 0 881 -1.6 90
2018-11-18 01:00:00 4.9 10 Oeste 20 Noroeste 0 881.6 -1.4 91
2018-11-18 00:00:00 5.2 11 Noroeste 21 Oeste 0 882.1 -1.2 92
2018-11-17 23:00:00 5.2 9 Noroeste 22 Oeste 0 882.6 -1 92
2018-11-17 22:00:00 5.7 13 Noroeste 22 Oeste 0 883 -1 93
2018-11-17 21:00:00 6.2 14 Oeste 22 Oeste 0 883.3 -0.7 92
2018-11-17 20:00:00 7 15 Oeste 21 Oeste 0 883.6 -0.7 90
2018-11-17 19:00:00 8 12 Oeste 21 Oeste 0 884 -0.6 88
2018-11-17 18:00:00 9.6 9 Sur 18 Sur 0 884 -1.1 78
2018-11-17 17:00:00 11.8 6 Este 10 Este 0 884.3 -1.2 70
2018-11-17 16:00:00 13.6 6 Este 22 Sur 0 884.6 -1.6 60
2018-11-17 15:00:00 13 6 Oeste 25 Sur 0 885.1 -1.7 61
2018-11-17 14:00:00 14.6 17 Sur 26 Sur 0 885.5 -1.6 58
2018-11-17 13:00:00 13.4 13 Sur 27 Sur 0 886.2 -1.3 63
2018-11-17 12:00:00 12.4 8 Sudoeste 21 Sur 0 886.8 -0.8 69
2018-11-17 11:00:00 9.3 9 Sudoeste 19 Sur 0 887.1 -0.2 86
2018-11-17 10:00:00 8.3 5 Nordeste 18 Sur 0 887.5 0.4 95
2018-11-17 09:00:00 7.4 8 Sudeste 17 Nordeste 0 887.6 0.4 97
2018-11-17 08:00:00 7.2 6 Nordeste 17 Nordeste 0 887.3 -0.1 97
2018-11-17 07:00:00 7.4 4 Nordeste 18 Sur 0 887.1 -0.7 97
2018-11-17 06:00:00 7.4 8 Este 17 Nordeste 0 887.2 -0.8 97
2018-11-17 05:00:00 7.9 8 Sudoeste 19 Sur 0 887.4 -0.6 94
2018-11-17 04:00:00 8 8 Sudoeste 20 Sur 0 887.8 -0.3 95
2018-11-17 03:00:00 8.4 12 Sur 25 Sur 0 888 -0.1 94
2018-11-17 02:00:00 8.5 14 Sur 30 Sur 0 888 -0.6 95
2018-11-17 01:00:00 8.8 18 Sur 41 Sur 0 888.1 -0.5 95
2018-11-17 00:00:00 8.4 14 Sur 25 Sur 0 888.1 -0.4 97
2018-11-16 23:00:00 8.1 10 Sudeste 17 Oeste 0 888.6 0.1 98
2018-11-16 22:00:00 7.7 6 Nordeste 18 Sur 0 888.6 0.3 97
2018-11-16 21:00:00 7.8 12 Sur 19 Sur 0 888.5 0.2 95
2018-11-16 20:00:00 8.1 12 Sudeste 22 Sudoeste 0 888.5 0.2 94
2018-11-16 19:00:00 9.5 9 Sudeste 28 Sur 0 888.3 0 91
2018-11-16 18:00:00 11 19 Sur 27 Sur 0 888.3 -0.4 75
2018-11-16 17:00:00 12.2 15 Sur 27 Sur 0 888.3 -1 69
2018-11-16 16:00:00 15.5 17 Sur 26 Sur 0 888.3 -1.5 55
2018-11-16 15:00:00 15.4 18 Sur 28 Sur 0 888.7 -1.7 57
2018-11-16 14:00:00 14 11 Sudoeste 25 Sur 0 889.3 -1.1 63
2018-11-16 13:00:00 13.6 6 Sudeste 22 Sur 0 889.8 -0.7 68
2018-11-16 12:00:00 11.6 12 Sur 23 Sur 0 890.4 0.2 76
2018-11-16 11:00:00 11.5 7 Sur 20 Oeste 0 890.4 0.6 79
2018-11-16 10:00:00 8.3 13 Oeste 19 Oeste 0 890.5 0.9 90
2018-11-16 09:00:00 7.3 14 Oeste 20 Oeste 0 890.2 0.5 97
2018-11-16 08:00:00 6 15 Oeste 21 Oeste 0 889.8 -0.1 96
2018-11-16 07:00:00 5.4 11 Noroeste 21 Oeste 0 889.6 -0.4 95
2018-11-16 06:00:00 5.4 15 Oeste 22 Oeste 0 889.7 -0.6 96
2018-11-16 05:00:00 5.9 16 Oeste 23 Oeste 0 889.9 -0.4 94
2018-11-16 04:00:00 6.1 12 Noroeste 22 Oeste 0 890 -0.8 94
2018-11-16 03:00:00 5.1 12 Oeste 21 Oeste 0 890.3 -0.7 95
2018-11-16 02:00:00 5.9 13 Oeste 21 Oeste 0 890.3 -0.7 95
2018-11-16 01:00:00 5.3 13 Oeste 21 Oeste 0 890.8 0.2 95
2018-11-16 00:00:00 6.1 14 Oeste 21 Oeste 0 891 0.6 94
2018-11-15 23:00:00 5.9 13 Oeste 21 Noroeste 0 891 0.9 93
2018-11-15 22:00:00 6.6 13 Oeste 22 Oeste 0 890.6 0.9 91
2018-11-15 21:00:00 7.5 11 Noroeste 23 Oeste 0 890.4 1.4 90
2018-11-15 20:00:00 7.8 13 Noroeste 22 Oeste 0 890.1 1.3 89
2018-11-15 19:00:00 8.5 2 Noroeste 15 Oeste 0 889.7 1 88
2018-11-15 18:00:00 10.6 8 Sudeste 23 Sur 0 889 0.1 75
2018-11-15 17:00:00 12.5 7 Sudeste 25 Sur 0 888.8 -0.3 65
2018-11-15 16:00:00 15.5 9 Sur 26 Sur 0 888.7 -0.8 54
2018-11-15 15:00:00 15.5 14 Sur 24 Sur 0 888.9 -1.1 56
2018-11-15 14:00:00 12.6 7 Este 24 Sur 0 889.1 -0.9 70
2018-11-15 13:00:00 13.3 13 Sur 25 Sur 0 889.5 -0.5 72
2018-11-15 12:00:00 11 12 Sur 22 Sur 0 890 0.3 89
2018-11-15 11:00:00 8.9 8 Oeste 20 Oeste 0 890 1 98
2018-11-15 10:00:00 8.4 6 Norte 18 Nordeste 0 890 1.4 99
2018-11-15 09:00:00 7.1 4 Este 17 Este 0 889.7 1.2 98
2018-11-15 08:00:00 6.3 6 Norte 17 Oeste 0 889 0.6 98
2018-11-15 07:00:00 6.4 5 Oeste 20 Nordeste 0 888.6 0.2 98
2018-11-15 06:00:00 7 8 Sudeste 18 Sudoeste 0 888.5 -0.4 98
2018-11-15 05:00:00 7 7 Este 19 Nordeste 0 888.4 -0.7 98
2018-11-15 04:00:00 6.4 7 Nordeste 20 Nordeste 0 888.4 -1.1 97
2018-11-15 03:00:00 6.7 9 Sur 20 Sur 0 888.9 -0.7 95
2018-11-15 02:00:00 7.2 10 Sudoeste 24 Sur 0 889.1 -0.7 96
2018-11-15 01:00:00 6.5 8 Sudoeste 21 Sur 0 889.5 -0.7 97
2018-11-15 00:00:00 6 6 Sudeste 20 Oeste 0 889.6 -0.8 97
2018-11-14 23:00:00 6.1 15 Oeste 20 Oeste 0 889.8 -1 97
2018-11-14 22:00:00 6.5 12 Oeste 22 Oeste 0 890.2 -0.6 96
2018-11-14 21:00:00 6.9 9 Noroeste 23 Oeste 0 890.4 -0.3 95
2018-11-14 20:00:00 6.8 14 Oeste 22 Oeste 0 890.8 0 94
2018-11-14 19:00:00 7.6 15 Oeste 19 Oeste 0 890.8 -0.1 92
2018-11-14 18:00:00 8.6 12 Oeste 17 Oeste 0 890.7 -0.4 85
2018-11-14 17:00:00 10.9 12 Sudeste 23 Sudeste 0 890.8 -0.6 77
2018-11-14 16:00:00 11.7 9 Este 21 Sudeste 0 890.9 -1 75
2018-11-14 15:00:00 11.4 13 Sudeste 25 Sudeste 0 891.1 -1.7 76
2018-11-14 14:00:00 12.3 14 Sudeste 26 Sur 0 891.4 -1.6 70
2018-11-14 13:00:00 12.4 11 Sur 19 Nordeste 0 891.9 -1.2 71
2018-11-14 12:00:00 12 10 Este 20 Este 0 892.8 -0.5 73
2018-11-14 11:00:00 11.1 7 Sur 19 Oeste 0 893 -0.3 81
2018-11-14 10:00:00 6.8 13 Oeste 19 Oeste 0 893.1 0 87
2018-11-14 09:00:00 3.2 7 Noroeste 18 Oeste 0 893.3 0 98
2018-11-14 08:00:00 3.3 6 Noroeste 17 Oeste 0 893.3 -0.2 96
2018-11-14 07:00:00 4.1 9 Noroeste 18 Oeste 0 893.1 -0.7 97
2018-11-14 06:00:00 3.1 8 Oeste 18 Oeste 0 893.3 -0.8 96
2018-11-14 05:00:00 3.9 9 Noroeste 19 Oeste 0 893.5 -0.9 96
2018-11-14 04:00:00 4.2 9 Noroeste 18 Oeste 0 893.8 -1 96
2018-11-14 03:00:00 4.1 8 Noroeste 18 Oeste 0 894.1 -0.9 97
2018-11-14 02:00:00 3.9 8 Noroeste 21 Oeste 0 894.4 -0.7 96
2018-11-14 01:00:00 4.1 10 Oeste 19 Oeste 0 894.8 -0.5 96
2018-11-14 00:00:00 4.8 14 Oeste 19 Oeste 0 895 -0.3 96
2018-11-13 23:00:00 5.3 12 Oeste 20 Oeste 0 895.1 -0.3 95
2018-11-13 22:00:00 5.7 13 Noroeste 21 Oeste 0 895.3 0.3 95
2018-11-13 21:00:00 5.9 15 Oeste 21 Oeste 0 895.3 0.7 94
2018-11-13 20:00:00 6.3 17 Oeste 20 Oeste 0 895.4 0.9 92
2018-11-13 19:00:00 7.5 10 Noroeste 20 Oeste 0 895 0.7 87
2018-11-13 18:00:00 9.9 17 Sur 21 Sur 0 894.6 0.3 74
2018-11-13 17:00:00 13.4 18 Sur 26 Sur 0 894.5 -0.2 61
2018-11-13 16:00:00 13.7 8 Sudeste 23 Sur 0 894.3 -0.8 61
2018-11-13 15:00:00 11.8 9 Este 23 Sur 0 894.3 -1.2 69
2018-11-13 14:00:00 12.7 10 Sudeste 18 Sudoeste -- 894.7 -0.9 66
2018-11-13 13:00:00 10.5 6 Norte 19 Sur -- 895.1 -0.4 76
2018-11-13 12:00:00 10.1 12 Sur 19 Sur -- 895.5 0.3 73
2018-11-13 11:00:00 7 5 Oeste 16 Oeste -- 895.6 1.2 85
2018-11-13 10:00:00 5 5 Noroeste 17 Oeste -- 895.5 1.5 89
2018-11-13 09:00:00 3.8 6 Noroeste 17 Oeste -- 895.2 1.6 92
2018-11-13 08:00:00 3.2 6 Noroeste 15 Oeste -- 894.4 1.3 93
2018-11-13 07:00:00 3.5 2 Oeste 15 Noroeste -- 894 1 92
2018-11-13 06:00:00 3.5 6 Noroeste 25 Oeste -- 893.6 0.7 91
2018-11-13 05:00:00 2.6 9 Noroeste 17 Oeste -- 893.1 0.6 95
2018-11-13 04:00:00 2.2 8 Noroeste 16 Oeste -- 893 0.7 96
2018-11-13 03:00:00 2.9 6 Noroeste 15 Oeste -- 892.9 1.1 94
2018-11-13 02:00:00 3.9 7 Oeste 18 Oeste -- 892.5 1.1 92
2018-11-13 01:00:00 4.3 7 Noroeste 17 Noroeste -- 892.3 1.7 90
2018-11-13 00:00:00 5.6 8 Noroeste 17 Oeste -- 891.8 1.8 92
2018-11-12 23:00:00 6.1 11 Oeste 17 Oeste -- 891.4 1.9 94
2018-11-12 22:00:00 6.2 3 Oeste 16 Norte -- 890.6 2.1 95
2018-11-12 21:00:00 6.2 8 Norte 17 Oeste -- 890 2.4 95
2018-11-12 20:00:00 6.4 5 Nordeste 13 Sur -- 889.5 2.5 94
2018-11-12 19:00:00 7.2 9 Sudeste 18 Sur -- 888.5 2 91
2018-11-12 18:00:00 8 6 Este 17 Sur -- 887.6 1.3 87
2018-11-12 17:00:00 9 12 Sur 19 Oeste -- 887 0.8 78
2018-11-12 16:00:00 10.2 8 Sudoeste 19 Sur -- 886.5 0.3 72
2018-11-12 15:00:00 10 13 Sur 23 Sur -- 886.3 0 74
2018-11-12 14:00:00 9.4 12 Sur 19 Sur -- 886.2 0.4 81
2018-11-12 13:00:00 8.1 10 Sur 24 Sur -- 886.2 0.9 92
2018-11-12 12:00:00 7.4 13 Sur 20 Sur -- 886.3 1.6 95
2018-11-12 11:00:00 8.1 11 Sur 21 Sur -- 885.8 2 97
2018-11-12 10:00:00 6.6 7 Sur 17 Sur -- 885.3 2 99
2018-11-12 09:00:00 5.4 3 Nordeste 12 Oeste -- 884.7 2.2 99
2018-11-12 08:00:00 5.2 5 Sudeste 13 Oeste -- 883.8 1.8 99
2018-11-12 07:00:00 5.3 5 Nordeste 14 Oeste -- 883.3 1.8 98
2018-11-12 06:00:00 5.2 8 Noroeste 12 Oeste -- 882.5 1.7 98
2018-11-12 05:00:00 5.2 6 Norte 12 Oeste -- 882 1.5 98
2018-11-12 04:00:00 5.3 6 Nordeste 16 Oeste -- 881.5 0.8 97
2018-11-12 03:00:00 5.4 6 Sudoeste 17 Oeste -- 880.8 0.5 97
2018-11-12 02:00:00 5.4 6 Sur 18 Oeste -- 880.5 0.1 98
2018-11-12 01:00:00 5.5 6 Norte 30 Sur -- 880.7 0.9 98
2018-11-12 00:00:00 5.6 7 Sudeste 15 Oeste -- 880.3 0.3 98
2018-11-11 23:00:00 5.5 6 Sudeste 15 Sur -- 880.4 0.5 98
2018-11-11 22:00:00 5.5 3 Sur 18 Oeste -- 879.8 -0.1 96
2018-11-11 21:00:00 5.7 8 Noroeste 18 Oeste -- 880 0.4 94
2018-11-11 20:00:00 6 8 Noroeste 22 Oeste 0.2 879.9 0.5 94
2018-11-11 19:00:00 6.5 10 Oeste 20 Oeste 0.2 879.9 0.5 96
2018-11-11 18:00:00 6.8 4 Nordeste 20 Oeste 0.2 879.6 -0.4 95
2018-11-11 17:00:00 7.2 9 Oeste 46 Este 0.2 879.4 -1.2 93
2018-11-11 16:00:00 8.6 14 Sur 62 Sur 0 879.4 -1.4 95
2018-11-11 15:00:00 8.8 29 Sur 62 Sur 0.2 880 -1.5 95
2018-11-11 14:00:00 8.8 24 Sur 47 Sur 0 880.6 -1.2 95
2018-11-11 13:00:00 8.8 20 Sur 49 Sur 0.2 880.8 -1 95
2018-11-11 12:00:00 8.5 21 Sur 45 Sur 0.2 881.5 -0.1 95
2018-11-11 11:00:00 8.1 25 Sudoeste 49 Sur 0 881.8 1 94
2018-11-11 10:00:00 7.9 30 Sur 56 Sur 0.2 881.8 1.8 95
2018-11-11 09:00:00 7.7 29 Sudoeste 62 Sur 0.2 881.6 2.1 95
2018-11-11 08:00:00 7.8 31 Sudoeste 67 Sur 0.2 880.8 0.9 92
2018-11-11 07:00:00 7.7 24 Sudoeste 58 Sudoeste 0 880 -0.5 91
2018-11-11 06:00:00 7.6 31 Sudoeste 66 Sudoeste 0.2 879.5 -1.2 88
2018-11-11 05:00:00 7.5 25 Sudoeste 59 Sudoeste 0.2 879.9 -1.3 90
2018-11-11 04:00:00 7.4 23 Sudoeste 51 Sur 0 880.5 -0.5 93
2018-11-11 03:00:00 7.5 23 Sudoeste 53 Sur 0.2 880.7 -0.5 86
2018-11-11 02:00:00 7.5 19 Sudoeste 57 Sudoeste 0 881.2 0 85
2018-11-11 01:00:00 7.4 24 Sudoeste 57 Sudoeste 0.2 881 -0.4 86
2018-11-11 00:00:00 7.2 21 Sudoeste 53 Sudoeste 0.2 881.2 0.3 85
2018-11-10 23:00:00 7.3 22 Sudoeste 52 Sur 0.2 881.2 0.7 80
2018-11-10 22:00:00 7.8 18 Sudoeste 41 Sudoeste 0 881.4 1.5 76
2018-11-10 21:00:00 8.4 19 Sudoeste 53 Oeste 0.2 880.9 1.9 63
2018-11-10 20:00:00 8.9 21 Sudoeste 80 Oeste 0.2 880.5 1.8 56
2018-11-10 19:00:00 8.8 21 Oeste 56 Oeste 0 879.9 1.6 55
2018-11-10 18:00:00 8.6 13 Sudoeste 33 Sudoeste 0.2 879 1.6 77
2018-11-10 17:00:00 9.2 12 Sudoeste 32 Oeste 0.2 878.7 0.8 81
2018-11-10 16:00:00 9.2 22 Sudoeste 54 Sudoeste 0 878.3 -0.6 88
2018-11-10 15:00:00 10.8 22 Sudoeste 58 Sur 0.2 877.4 -1.2 75
2018-11-10 14:00:00 11.4 19 Sudoeste 48 Sudoeste 0.2 877.9 -0.8 67
2018-11-10 13:00:00 13.6 23 Sudoeste 55 Oeste 0.2 878.9 0.4 51
2018-11-10 12:00:00 12.1 26 Sudoeste 62 Sudoeste 0 878.6 0.1 47
2018-11-10 11:00:00 10.9 28 Sudoeste 62 Sudoeste 0.2 878.7 0.8 52
2018-11-10 10:00:00 10.4 32 Sudoeste 68 Sudoeste 0.2 878.5 0.9 52
2018-11-10 09:00:00 9.3 23 Sudoeste 71 Sudoeste 0 878.5 0.5 88
2018-11-10 08:00:00 8.6 28 Sudoeste 65 Sur 0.2 877.9 -0.5 96
2018-11-10 07:00:00 8.3 29 Sudoeste 60 Sudoeste 0 877.6 -1.2 96
2018-11-10 06:00:00 8.1 29 Sudoeste 68 Sudoeste 0.2 878 -1.6 96
2018-11-10 05:00:00 7.9 29 Sudoeste 68 Sudoeste 0 878.4 -2 96
2018-11-10 04:00:00 7.9 31 Sudoeste 62 Sudoeste 0.2 878.8 -2.7 96
2018-11-10 03:00:00 7.7 32 Sudoeste 66 Sudoeste 0.2 879.6 -2.6 96
2018-11-10 02:00:00 7.7 30 Sudoeste 59 Sur 0 880.4 -2.6 97
2018-11-10 01:00:00 7.2 20 Sudoeste 42 Sudoeste 0.2 881.5 -1.9 98
2018-11-10 00:00:00 6.6 9 Este 33 Sur 0.2 882.2 -1.3 96